createdAt,value
2023-03-04T00:00:10.583Z,72.60
2023-03-04T00:03:20.672Z,71.67
2023-03-04T00:06:32.907Z,70.38
2023-03-04T00:09:44.785Z,74.78
2023-03-04T00:12:56.602Z,67.18
2023-03-04T00:16:11.621Z,69.50
2023-03-04T00:19:23.573Z,71.05
2023-03-04T00:22:35.436Z,73.38
2023-03-04T00:25:43.725Z,71.20
2023-03-04T00:28:51.514Z,65.53
2023-03-04T00:32:03.555Z,62.80
2023-03-04T00:35:16.378Z,66.65
2023-03-04T00:38:28.385Z,70.55
2023-03-04T00:41:40.471Z,69.28
2023-03-04T00:44:53.512Z,72.43
2023-03-04T00:48:05.417Z,64.63
2023-03-04T00:51:17.414Z,68.25
2023-03-04T00:54:29.296Z,65.93
2023-03-04T00:57:41.745Z,63.68
2023-03-04T01:00:53.617Z,66.83
2023-03-04T01:04:05.649Z,63.90
2023-03-04T01:07:18.229Z,65.70
2023-03-04T01:10:30.168Z,60.75
2023-03-04T01:13:42.561Z,59.55
2023-03-04T01:16:56.416Z,62.05
2023-03-04T01:20:09.233Z,60.93
2023-03-04T01:23:21.390Z,57.60
2023-03-04T01:26:33.433Z,57.38
2023-03-04T01:29:45.498Z,58.98
2023-03-04T01:32:57.453Z,50.20
2023-03-04T01:36:10.084Z,54.23
2023-03-04T01:39:18.009Z,55.00
2023-03-04T01:42:32.563Z,57.55
2023-03-04T01:45:44.762Z,57.15
2023-03-04T01:48:56.755Z,52.50
2023-03-04T01:52:08.851Z,50.20
2023-03-04T01:55:26.191Z,56.40
2023-03-04T01:58:35.403Z,53.53
2023-03-04T02:01:49.548Z,53.95
2023-03-04T02:05:01.534Z,49.45
2023-03-04T02:08:15.147Z,48.80
2023-03-04T02:11:27.291Z,50.78
2023-03-04T02:14:40.059Z,49.18
2023-03-04T02:17:52.252Z,52.43
2023-03-04T02:21:12.332Z,49.70
2023-03-04T02:24:30.677Z,45.10
2023-03-04T02:27:43.051Z,46.13
2023-03-04T02:30:55.254Z,47.05
2023-03-04T02:34:11.204Z,48.18
2023-03-04T02:37:24.091Z,42.90
2023-03-04T02:40:40.204Z,49.35
2023-03-04T02:47:01.492Z,45.25
2023-03-04T02:50:16.308Z,43.85
2023-03-04T02:53:29.813Z,47.78
2023-03-04T02:56:41.748Z,46.75
2023-03-04T02:59:55.152Z,41.23
2023-03-04T03:03:05.084Z,41.28
2023-03-04T03:06:15.075Z,42.73
2023-03-04T03:09:27.824Z,43.63
2023-03-04T03:12:41.122Z,43.70
2023-03-04T03:15:53.679Z,37.98
2023-03-04T03:19:08.169Z,41.28
2023-03-04T03:22:21.072Z,42.68
2023-03-04T03:25:33.115Z,41.40
2023-03-04T03:28:45.002Z,42.23
2023-03-04T03:31:57.248Z,43.03
2023-03-04T03:35:10.684Z,41.68
2023-03-04T03:38:22.917Z,38.90
2023-03-04T03:41:34.752Z,36.90
2023-03-04T03:44:46.630Z,40.63
2023-03-04T03:47:54.333Z,36.43
2023-03-04T03:51:06.203Z,46.78
2023-03-04T03:54:18.122Z,42.20
2023-03-04T03:57:29.996Z,38.48
2023-03-04T04:00:42.006Z,41.23
2023-03-04T04:03:53.973Z,39.35
2023-03-04T04:07:07.782Z,37.98
2023-03-04T04:10:20.559Z,45.05
2023-03-04T04:13:32.521Z,44.33
2023-03-04T04:16:44.463Z,40.68
2023-03-04T04:19:56.736Z,41.10
2023-03-04T04:23:09.253Z,39.83
2023-03-04T04:26:21.286Z,41.53
2023-03-04T04:29:33.633Z,41.95
2023-03-04T04:32:48.066Z,46.33
2023-03-04T04:36:01.324Z,43.13
2023-03-04T04:39:13.366Z,45.25
2023-03-04T04:42:21.032Z,47.35
2023-03-04T04:45:33.260Z,49.88
2023-03-04T04:48:40.954Z,48.48
2023-03-04T04:51:52.804Z,47.15
2023-03-04T04:55:04.868Z,47.65
2023-03-04T04:58:16.888Z,50.80
2023-03-04T05:01:29.622Z,53.13
2023-03-04T05:04:41.679Z,51.90
2023-03-04T05:07:53.575Z,50.83
2023-03-04T05:11:05.736Z,48.55
2023-03-04T05:14:17.797Z,50.68
2023-03-04T05:17:30.112Z,50.65
2023-03-04T05:20:42.043Z,57.88
2023-03-04T05:23:53.968Z,55.73
2023-03-04T05:27:06.113Z,53.50
2023-03-04T05:30:20.339Z,51.13
2023-03-04T05:33:34.014Z,54.60
2023-03-04T05:36:45.911Z,54.88
2023-03-04T05:39:57.812Z,57.88
2023-03-04T05:46:21.331Z,53.05
2023-03-04T05:49:29.103Z,54.60
2023-03-04T05:52:40.988Z,52.33
2023-03-04T05:55:55.646Z,52.35
2023-03-04T05:59:07.792Z,57.08
2023-03-04T06:02:19.979Z,49.60
2023-03-04T06:05:32.141Z,52.40
2023-03-04T06:08:44.207Z,60.80
2023-03-04T06:11:56.075Z,60.05
2023-03-04T06:15:10.126Z,62.90
2023-03-04T06:18:22.142Z,55.55
2023-03-04T06:21:34.121Z,56.33
2023-03-04T06:24:46.274Z,45.80
2023-03-04T06:27:58.657Z,54.80
2023-03-04T06:31:10.960Z,50.78
2023-03-04T06:34:23.290Z,55.83
2023-03-04T06:37:35.327Z,58.85
2023-03-04T06:40:47.366Z,53.60
2023-03-04T06:44:01.700Z,52.18
2023-03-04T06:47:14.152Z,57.83
2023-03-04T06:50:26.458Z,58.88
2023-03-04T06:53:38.601Z,64.55
2023-03-04T06:56:50.601Z,67.13
2023-03-04T07:00:03.491Z,64.70
2023-03-04T07:03:17.221Z,62.08
2023-03-04T07:06:31.558Z,62.18
2023-03-04T07:09:43.725Z,63.10
2023-03-04T07:12:56.090Z,71.08
2023-03-04T07:16:09.538Z,72.50
2023-03-04T07:19:21.976Z,69.28
2023-03-04T07:22:34.112Z,72.28
2023-03-04T07:25:46.294Z,66.33
2023-03-04T07:28:59.925Z,74.13
2023-03-04T07:32:11.062Z,75.08
2023-03-04T07:35:24.003Z,72.25
2023-03-04T07:38:36.489Z,75.55
2023-03-04T07:41:49.010Z,82.28
2023-03-04T07:45:02.107Z,67.70
2023-03-04T07:51:16.832Z,65.05
2023-03-04T07:54:28.986Z,71.10
2023-03-04T07:57:41.074Z,67.53
2023-03-04T08:00:48.802Z,69.80
2023-03-04T08:04:02.585Z,74.00
2023-03-04T08:07:14.769Z,66.03
2023-03-04T08:10:26.902Z,73.60
2023-03-04T08:13:38.912Z,73.13
2023-03-04T08:16:50.834Z,78.38
2023-03-04T08:20:02.803Z,76.25
2023-03-04T08:23:14.848Z,78.63
2023-03-04T08:29:35.898Z,79.10
2023-03-04T08:32:43.778Z,83.15
2023-03-04T08:35:56.031Z,77.63
2023-03-04T08:39:08.280Z,87.15
2023-03-04T08:42:20.321Z,85.22
2023-03-04T08:45:32.344Z,77.70
2023-03-04T08:48:45.026Z,88.03
2023-03-04T08:51:56.976Z,81.10
2023-03-04T08:55:10.011Z,87.17
2023-03-04T08:58:22.176Z,81.35
2023-03-04T09:01:34.426Z,81.45
2023-03-04T09:04:46.757Z,82.55
2023-03-04T09:07:58.636Z,73.80
2023-03-04T09:11:07.344Z,73.85
2023-03-04T09:14:19.353Z,68.48
2023-03-04T09:17:31.630Z,71.00
2023-03-04T09:20:43.701Z,71.65
2023-03-04T09:23:58.560Z,71.23
2023-03-04T09:27:10.553Z,71.13
2023-03-04T09:30:23.944Z,63.00
2023-03-04T09:33:36.098Z,64.68
2023-03-04T09:36:48.117Z,62.33
2023-03-04T09:40:00.034Z,64.15
2023-03-04T09:49:36.820Z,63.98
2023-03-04T09:52:58.878Z,60.28
2023-03-04T09:56:11.969Z,59.33
2023-03-04T09:59:31.494Z,65.18
2023-03-04T10:02:51.654Z,59.68
2023-03-04T10:09:21.103Z,64.58
2023-03-04T10:12:32.987Z,60.78
2023-03-04T10:15:51.116Z,57.33
2023-03-04T10:19:10.532Z,63.85
2023-03-04T10:22:27.189Z,63.23
2023-03-04T10:25:41.216Z,67.55
2023-03-04T10:28:53.803Z,65.75
2023-03-04T10:32:05.704Z,63.45
2023-03-04T10:35:20.541Z,65.05
2023-03-04T10:38:30.873Z,66.70
2023-03-04T10:41:45.484Z,65.60
2023-03-04T10:45:03.762Z,63.40
2023-03-04T10:51:35.279Z,63.20
2023-03-04T10:54:49.057Z,68.18
2023-03-04T10:58:05.334Z,63.30
2023-03-04T11:01:17.858Z,49.30
2023-03-04T11:04:32.235Z,62.43
2023-03-04T11:07:55.855Z,66.23
2023-03-04T11:11:03.201Z,62.80
2023-03-04T11:14:21.577Z,63.90
2023-03-04T11:17:37.817Z,60.30
2023-03-04T11:20:52.827Z,65.55
2023-03-04T11:27:19.655Z,64.70
2023-03-04T11:30:42.008Z,62.70
2023-03-04T11:33:56.026Z,58.50
2023-03-04T11:37:10.352Z,60.35
2023-03-04T11:43:34.791Z,72.18
2023-03-04T11:47:07.985Z,63.68
2023-03-04T11:50:44.564Z,56.70
2023-03-04T11:54:13.793Z,57.23
2023-03-04T11:57:30.871Z,57.05
2023-03-04T12:00:48.263Z,56.88
2023-03-04T12:04:10.374Z,60.90
2023-03-04T12:10:49.235Z,57.98
2023-03-04T12:18:12.537Z,49.83
2023-03-04T12:21:37.665Z,47.08
2023-03-04T12:25:30.771Z,50.40
2023-03-04T12:28:57.758Z,47.60
2023-03-04T12:32:18.544Z,48.53
2023-03-04T12:35:45.566Z,43.25
2023-03-04T12:39:16.431Z,46.03
2023-03-04T12:42:33.347Z,42.60
2023-03-04T12:49:18.620Z,40.28
2023-03-04T12:52:41.662Z,40.43
2023-03-04T12:55:55.862Z,43.65
2023-03-04T12:59:09.109Z,45.15
2023-03-04T13:02:56.501Z,46.28
2023-03-04T13:06:36.029Z,44.70
2023-03-04T13:09:54.733Z,41.93
2023-03-04T13:13:08.536Z,41.70
2023-03-04T13:16:43.007Z,44.40
2023-03-04T13:20:05.208Z,38.90
2023-03-04T13:23:33.536Z,54.48
2023-03-04T13:26:41.906Z,36.90
2023-03-04T13:29:54.374Z,36.73
2023-03-04T13:33:25.930Z,37.28
2023-03-04T13:37:03.665Z,43.03
2023-03-04T13:40:42.330Z,40.30
2023-03-04T13:43:56.072Z,46.50
2023-03-04T13:47:20.514Z,36.23
2023-03-04T13:50:45.073Z,34.33
2023-03-04T13:53:59.474Z,34.43
2023-03-04T13:57:26.286Z,39.23
2023-03-04T14:00:38.682Z,36.10
2023-03-04T14:03:50.920Z,34.03
2023-03-04T14:07:06.448Z,40.15
2023-03-04T14:10:30.337Z,33.53
2023-03-04T14:13:43.525Z,30.65
2023-03-04T14:20:06.039Z,30.65
2023-03-04T14:23:33.330Z,32.73
2023-03-04T14:26:45.502Z,32.00
2023-03-04T14:30:06.025Z,35.05
2023-03-04T14:33:26.003Z,31.55
2023-03-04T14:36:42.121Z,30.58
2023-03-04T14:39:58.489Z,33.03
2023-03-04T14:43:12.183Z,34.20
2023-03-04T14:46:26.039Z,34.43
2023-03-04T14:49:38.887Z,34.90
2023-03-04T14:52:49.221Z,35.28
2023-03-04T14:56:07.207Z,35.08
2023-03-04T14:59:20.936Z,28.03
2023-03-04T15:02:40.301Z,30.58
2023-03-04T15:05:53.012Z,28.33
2023-03-04T15:12:17.453Z,33.53
2023-03-04T15:15:51.083Z,31.33
2023-03-04T15:19:06.289Z,33.93
2023-03-04T15:22:18.210Z,32.28
2023-03-04T15:25:31.110Z,27.20
2023-03-04T15:28:45.723Z,31.80
2023-03-04T15:31:57.648Z,29.15
2023-03-04T15:35:11.009Z,34.98
2023-03-04T15:38:23.214Z,32.48
2023-03-04T15:41:35.168Z,30.55
2023-03-04T15:44:47.382Z,35.15
2023-03-04T15:47:55.721Z,30.15
2023-03-04T15:51:11.346Z,30.38
2023-03-04T15:54:19.188Z,32.40
2023-03-04T15:57:33.440Z,29.35
2023-03-04T16:00:45.432Z,30.03
2023-03-04T16:03:58.069Z,32.45
2023-03-04T16:07:05.883Z,32.13
2023-03-04T16:10:21.161Z,30.28
2023-03-04T16:13:33.253Z,35.63
2023-03-04T16:16:47.104Z,31.60
2023-03-04T16:19:59.136Z,30.33
2023-03-04T16:23:13.854Z,28.75
2023-03-04T16:29:33.631Z,29.50
2023-03-04T16:32:41.470Z,28.73
2023-03-04T16:35:54.301Z,27.55
2023-03-04T16:39:13.041Z,28.63
2023-03-04T16:42:27.385Z,25.78
2023-03-04T16:45:40.234Z,28.98
2023-03-04T16:48:52.773Z,27.35
2023-03-04T16:52:05.054Z,27.35
2023-03-04T16:55:24.697Z,27.95
2023-03-04T16:58:37.257Z,28.05
2023-03-04T17:01:49.994Z,29.28
2023-03-04T17:05:02.040Z,29.65
2023-03-04T17:08:14.051Z,27.35
2023-03-04T17:11:28.242Z,28.28
2023-03-04T17:14:41.238Z,26.90
2023-03-04T17:17:53.749Z,28.48
2023-03-04T17:21:13.211Z,26.40
2023-03-04T17:24:21.021Z,30.08
2023-03-04T17:27:33.012Z,30.35
2023-03-04T17:30:41.560Z,27.88
2023-03-04T17:33:54.484Z,29.23
2023-03-04T17:37:06.569Z,31.38
2023-03-04T17:43:27.193Z,29.43
2023-03-04T17:46:39.516Z,31.10
2023-03-04T17:49:51.491Z,27.55
2023-03-04T17:53:03.458Z,29.45
2023-03-04T17:56:17.366Z,30.85
2023-03-04T17:59:30.352Z,27.08
2023-03-04T18:02:42.688Z,27.70
2023-03-04T18:05:54.881Z,30.15
2023-03-04T18:09:07.064Z,28.45
2023-03-04T18:12:19.659Z,27.75
2023-03-04T18:15:31.770Z,29.80
2023-03-04T18:18:44.418Z,27.33
2023-03-04T18:21:56.389Z,25.93
2023-03-04T18:25:11.030Z,24.73
2023-03-04T18:28:23.141Z,26.93
2023-03-04T18:31:37.133Z,46.13
2023-03-04T18:34:49.185Z,29.45
2023-03-04T18:38:01.390Z,25.88
2023-03-04T18:44:21.791Z,27.68
2023-03-04T18:47:34.574Z,27.08
2023-03-04T18:50:46.575Z,24.98
2023-03-04T18:53:58.650Z,26.45
2023-03-04T18:57:16.629Z,27.73
2023-03-04T19:00:30.464Z,26.90
2023-03-04T19:03:44.603Z,29.28
2023-03-04T19:06:52.596Z,26.60
2023-03-04T19:13:05.475Z,25.60
2023-03-04T19:19:18.068Z,29.43
2023-03-04T19:22:30.243Z,30.15
2023-03-04T19:25:43.435Z,32.15
2023-03-04T19:28:55.498Z,29.53
2023-03-04T19:32:07.640Z,27.15
2023-03-04T19:35:19.713Z,30.08
2023-03-04T19:38:31.797Z,31.85
2023-03-04T19:41:40.029Z,29.85
2023-03-04T19:44:52.050Z,29.83
2023-03-04T19:47:59.817Z,32.15
2023-03-04T19:51:19.778Z,32.18
2023-03-04T19:54:31.889Z,28.05
2023-03-04T19:57:44.595Z,30.60
2023-03-04T20:00:58.025Z,32.28
2023-03-04T20:04:14.481Z,30.58
2023-03-04T20:07:26.476Z,32.20
2023-03-04T20:10:44.736Z,31.83
2023-03-04T20:16:58.736Z,33.88
2023-03-04T20:20:14.439Z,31.35
2023-03-04T20:23:29.185Z,30.70
2023-03-04T20:26:40.617Z,30.63
2023-03-04T20:29:53.461Z,30.68
2023-03-04T20:33:01.143Z,30.40
2023-03-04T20:36:09.895Z,32.08
2023-03-04T20:39:29.097Z,33.30
2023-03-04T20:42:36.200Z,31.10
2023-03-04T20:45:48.340Z,31.28
2023-03-04T20:49:01.074Z,33.23
2023-03-04T20:52:14.541Z,35.78
2023-03-04T20:55:28.072Z,33.00
2023-03-04T20:58:40.801Z,36.13
2023-03-04T21:05:19.840Z,18.18
2023-03-04T21:08:31.904Z,22.68
2023-03-04T21:11:44.776Z,21.33
2023-03-04T21:14:56.824Z,24.95
2023-03-04T21:18:09.334Z,32.78
2023-03-04T21:21:26.170Z,33.98
2023-03-04T21:24:40.365Z,28.38
2023-03-04T21:27:52.368Z,30.73
2023-03-04T21:34:13.519Z,21.15
2023-03-04T21:37:26.328Z,20.78
2023-03-04T21:40:39.410Z,17.88
2023-03-04T21:43:52.239Z,8.45
2023-03-04T21:47:05.521Z,8.38
2023-03-04T21:50:18.779Z,9.88
2023-03-04T21:53:30.815Z,10.23
2023-03-04T21:59:49.761Z,5.48
2023-03-04T22:03:01.763Z,7.20
2023-03-04T22:06:17.346Z,9.13
2023-03-04T22:09:29.494Z,8.48
2023-03-04T22:12:42.074Z,6.45
2023-03-04T22:15:54.373Z,8.08
2023-03-04T22:19:07.029Z,4.55
2023-03-04T22:22:19.910Z,6.60
2023-03-04T22:25:32.399Z,6.23
2023-03-04T22:28:45.075Z,5.58
2023-03-04T22:31:57.124Z,7.28
2023-03-04T22:35:10.468Z,6.15
2023-03-04T22:38:22.839Z,7.30
2023-03-04T22:41:34.849Z,6.08
2023-03-04T22:44:46.880Z,7.95
2023-03-04T22:48:00.523Z,7.33
2023-03-04T22:51:15.183Z,8.93
2023-03-04T22:54:28.070Z,8.28
2023-03-04T22:57:40.008Z,9.20
2023-03-04T23:00:52.179Z,8.48
2023-03-04T23:04:05.043Z,6.98
2023-03-04T23:07:17.119Z,7.58
2023-03-04T23:10:31.137Z,8.63
2023-03-04T23:13:43.770Z,9.38
2023-03-04T23:16:56.146Z,8.68
2023-03-04T23:20:08.644Z,8.95
2023-03-04T23:23:20.888Z,8.78
2023-03-04T23:26:36.470Z,9.25
2023-03-04T23:29:48.542Z,7.18
2023-03-04T23:33:00.544Z,10.40
2023-03-04T23:36:15.256Z,9.95
2023-03-04T23:39:27.776Z,10.20
2023-03-04T23:42:39.712Z,11.45
2023-03-04T23:48:58.447Z,9.47
2023-03-04T23:52:11.216Z,10.45
2023-03-04T23:55:25.639Z,14.65
2023-03-04T23:58:37.517Z,9.98
